createdAt,value
2022-08-09T00:02:31.543Z,17.24
2022-08-09T00:07:44.856Z,17.19
2022-08-09T00:12:52.344Z,17.08
2022-08-09T00:18:07.513Z,16.96
2022-08-09T00:23:55.083Z,16.90
2022-08-09T00:28:39.825Z,16.84
2022-08-09T00:33:49.175Z,16.81
2022-08-09T00:38:54.522Z,16.67
2022-08-09T00:44:09.846Z,16.66
2022-08-09T00:49:21.002Z,16.69
2022-08-09T00:54:31.491Z,16.70
2022-08-09T00:59:47.092Z,16.68
2022-08-09T01:04:56.006Z,16.73
2022-08-09T01:10:13.930Z,16.61
2022-08-09T01:15:22.859Z,16.56
2022-08-09T01:20:53.683Z,16.45
2022-08-09T01:26:15.191Z,16.41
2022-08-09T01:32:28.184Z,16.31
2022-08-09T01:36:45.732Z,16.20
2022-08-09T01:41:55.898Z,16.06
2022-08-09T01:47:06.251Z,16.12
2022-08-09T01:52:18.915Z,16.06
2022-08-09T01:57:40.230Z,16.06
2022-08-09T02:02:50.809Z,16.18
2022-08-09T02:08:41.254Z,16.11
2022-08-09T02:13:37.715Z,16.11
2022-08-09T02:18:47.793Z,16.11
2022-08-09T02:23:56.394Z,16.18
2022-08-09T02:29:04.379Z,16.11
2022-08-09T02:34:40.400Z,16.12
2022-08-09T02:39:45.393Z,16.18
2022-08-09T02:44:59.811Z,16.10
2022-08-09T02:50:08.651Z,16.25
2022-08-09T02:55:19.970Z,16.29
2022-08-09T03:00:26.477Z,16.19
2022-08-09T03:05:34.732Z,16.27
2022-08-09T03:10:38.839Z,16.48
2022-08-09T03:16:06.172Z,16.59
2022-08-09T03:21:08.771Z,16.69
2022-08-09T03:26:15.277Z,16.72
2022-08-09T03:31:21.288Z,16.97
2022-08-09T03:36:28.140Z,16.97
2022-08-09T03:41:45.730Z,17.12
2022-08-09T03:46:51.516Z,17.30
2022-08-09T03:52:00.447Z,17.30
2022-08-09T03:57:19.807Z,17.35
2022-08-09T04:02:28.393Z,17.39
2022-08-09T04:07:47.743Z,17.34
2022-08-09T04:12:56.387Z,17.37
2022-08-09T04:18:00.855Z,17.51
2022-08-09T04:23:10.034Z,17.50
2022-08-09T04:28:33.672Z,17.46
2022-08-09T04:33:52.629Z,17.69
2022-08-09T04:39:02.186Z,17.91
2022-08-09T04:44:11.110Z,18.06
2022-08-09T04:49:15.071Z,18.23
2022-08-09T04:54:19.248Z,18.42
2022-08-09T04:59:22.775Z,18.74
2022-08-09T05:04:30.754Z,19.07
2022-08-09T05:09:42.016Z,19.28
2022-08-09T05:14:48.769Z,19.57
2022-08-09T05:19:58.089Z,19.89
2022-08-09T05:25:02.571Z,20.16
2022-08-09T05:30:06.350Z,20.46
2022-08-09T05:35:11.634Z,20.75
2022-08-09T05:40:15.519Z,21.01
2022-08-09T05:45:19.314Z,21.27
2022-08-09T05:50:50.627Z,21.54
2022-08-09T05:55:54.318Z,21.76
2022-08-09T06:00:58.095Z,22.00
2022-08-09T06:06:06.014Z,22.28
2022-08-09T06:11:16.742Z,22.57
2022-08-09T06:16:22.779Z,22.81
2022-08-09T06:21:26.005Z,23.14
2022-08-09T06:26:30.135Z,24.77
2022-08-09T06:31:40.049Z,28.46
2022-08-09T06:37:00.718Z,29.13
2022-08-09T06:42:08.909Z,29.44
2022-08-09T06:47:14.958Z,31.98
2022-08-09T06:52:18.682Z,32.85
2022-08-09T06:58:01.423Z,32.72
2022-08-09T07:02:51.739Z,31.82
2022-08-09T07:08:00.694Z,31.83
2022-08-09T07:13:18.491Z,31.71
2022-08-09T07:18:28.100Z,31.73
2022-08-09T07:23:36.129Z,32.26
2022-08-09T07:29:09.287Z,33.21
2022-08-09T07:34:02.846Z,33.82
2022-08-09T07:39:06.390Z,32.40
2022-08-09T07:44:14.892Z,32.25
2022-08-09T07:49:18.136Z,33.10
2022-08-09T07:54:27.901Z,33.59
2022-08-09T07:59:45.665Z,33.37
2022-08-09T08:04:54.063Z,32.40
2022-08-09T08:10:08.985Z,32.29
2022-08-09T08:15:17.638Z,31.79
2022-08-09T08:20:30.299Z,32.11
2022-08-09T08:25:39.989Z,33.01
2022-08-09T08:30:47.741Z,32.88
2022-08-09T08:35:58.310Z,31.55
2022-08-09T08:41:05.636Z,32.62
2022-08-09T08:46:33.022Z,32.66
2022-08-09T08:51:41.857Z,32.04
2022-08-09T08:57:05.154Z,32.38
2022-08-09T09:02:31.207Z,31.67
2022-08-09T09:07:37.101Z,31.61
2022-08-09T09:12:47.369Z,31.52
2022-08-09T09:17:52.938Z,32.35
2022-08-09T09:23:01.795Z,32.20
2022-08-09T09:28:08.026Z,32.52
2022-08-09T09:33:20.391Z,32.81
2022-08-09T09:38:36.371Z,33.91
2022-08-09T09:43:41.556Z,32.79
2022-08-09T09:49:06.364Z,31.76
2022-08-09T09:54:22.874Z,32.65
2022-08-09T09:59:35.887Z,32.33
2022-08-09T10:04:39.913Z,31.37
2022-08-09T10:09:54.728Z,32.44
2022-08-09T10:15:17.458Z,32.80
2022-08-09T10:20:32.899Z,32.53
2022-08-09T10:26:08.021Z,32.27
2022-08-09T10:36:26.504Z,33.31
2022-08-09T10:41:31.248Z,32.79
2022-08-09T10:47:00.854Z,33.26
2022-08-09T10:52:28.166Z,32.52
2022-08-09T10:57:37.839Z,32.18
2022-08-09T11:03:19.542Z,33.01
2022-08-09T11:08:47.325Z,32.31
2022-08-09T11:14:34.536Z,32.42
2022-08-09T11:20:12.155Z,30.91
2022-08-09T11:25:45.362Z,29.83
2022-08-09T11:30:51.225Z,28.79
2022-08-09T11:35:59.461Z,28.42
2022-08-09T11:41:38.391Z,27.93
2022-08-09T11:47:10.937Z,27.65
2022-08-09T11:53:15.739Z,27.26
2022-08-09T11:58:00.944Z,27.00
2022-08-09T12:03:09.733Z,26.66
2022-08-09T12:08:29.396Z,26.34
2022-08-09T12:14:07.194Z,26.02
2022-08-09T12:19:00.541Z,25.61
2022-08-09T12:24:09.505Z,25.51
2022-08-09T12:29:33.390Z,25.42
2022-08-09T12:34:46.625Z,25.38
2022-08-09T12:40:02.501Z,25.54
2022-08-09T12:45:32.437Z,25.74
2022-08-09T12:50:30.353Z,26.27
2022-08-09T12:56:15.479Z,26.00
2022-08-09T13:00:57.696Z,25.36
2022-08-09T13:06:13.129Z,25.18
2022-08-09T13:11:23.402Z,24.93
2022-08-09T13:16:49.439Z,25.17
2022-08-09T13:22:37.409Z,25.26
2022-08-09T13:27:48.837Z,25.28
2022-08-09T13:32:58.631Z,25.19
2022-08-09T13:38:02.423Z,24.96
2022-08-09T13:43:09.997Z,24.76
2022-08-09T13:48:15.580Z,24.60
2022-08-09T13:53:19.187Z,24.14
2022-08-09T13:58:22.273Z,23.84
2022-08-09T14:04:04.821Z,23.75
2022-08-09T14:08:51.434Z,23.47
2022-08-09T14:14:24.562Z,23.42
2022-08-09T14:19:20.537Z,23.24
2022-08-09T14:24:54.158Z,23.13
2022-08-09T14:30:35.929Z,23.02
2022-08-09T14:35:20.989Z,22.95
2022-08-09T14:40:38.877Z,22.73
2022-08-09T14:46:54.313Z,22.65
2022-08-09T14:51:16.929Z,22.55
2022-08-09T14:56:21.770Z,22.33
2022-08-09T15:01:30.582Z,22.19
2022-08-09T15:06:33.723Z,22.17
2022-08-09T15:11:38.205Z,22.30
2022-08-09T15:16:41.350Z,21.93
2022-08-09T15:21:55.589Z,21.63
2022-08-09T15:27:03.525Z,21.57
2022-08-09T15:32:28.833Z,21.56
2022-08-09T15:37:56.698Z,21.68
2022-08-09T15:43:03.130Z,21.81
2022-08-09T15:48:28.145Z,21.95
2022-08-09T15:54:04.839Z,22.08
2022-08-09T15:58:55.214Z,22.14
2022-08-09T16:03:58.461Z,22.42
2022-08-09T16:09:04.934Z,22.42
2022-08-09T16:14:08.702Z,22.54
2022-08-09T16:19:13.868Z,22.60
2022-08-09T16:24:33.145Z,22.65
2022-08-09T16:29:50.617Z,22.77
2022-08-09T16:34:58.202Z,22.65
2022-08-09T16:40:05.486Z,22.54
2022-08-09T16:45:10.598Z,22.58
2022-08-09T16:50:32.009Z,22.46
2022-08-09T16:55:58.849Z,22.46
2022-08-09T17:01:01.319Z,22.77
2022-08-09T17:06:28.227Z,22.96
2022-08-09T17:11:32.952Z,23.15
2022-08-09T17:16:44.547Z,23.14
2022-08-09T17:21:48.719Z,22.72
2022-08-09T17:26:59.423Z,22.54
2022-08-09T17:32:02.489Z,22.53
2022-08-09T17:37:06.154Z,22.24
2022-08-09T17:42:41.317Z,22.01
2022-08-09T17:47:49.734Z,21.66
2022-08-09T17:52:58.629Z,21.36
2022-08-09T17:58:05.432Z,21.05
2022-08-09T18:03:09.479Z,20.68
2022-08-09T18:08:13.470Z,20.23
2022-08-09T18:13:43.370Z,19.89
2022-08-09T18:18:43.086Z,19.64
2022-08-09T18:24:09.633Z,19.50
2022-08-09T18:30:40.109Z,19.29
2022-08-09T18:34:41.104Z,19.03
2022-08-09T18:39:48.423Z,18.90
2022-08-09T18:44:52.191Z,18.66
2022-08-09T18:49:56.089Z,18.60
2022-08-09T18:55:13.559Z,18.51
2022-08-09T19:00:20.372Z,18.46
2022-08-09T19:05:49.045Z,18.67
2022-08-09T19:10:48.933Z,18.81
2022-08-09T19:15:56.293Z,18.81
2022-08-09T19:21:00.548Z,18.97
2022-08-09T19:26:05.495Z,19.03
2022-08-09T19:31:09.965Z,19.08
2022-08-09T19:36:13.599Z,19.03
2022-08-09T19:41:32.862Z,18.98
2022-08-09T19:46:50.132Z,18.70
2022-08-09T19:51:57.287Z,18.43
2022-08-09T19:57:01.234Z,18.54
2022-08-09T20:03:23.949Z,18.35
2022-08-09T20:07:56.705Z,18.01
2022-08-09T20:12:53.010Z,17.85
2022-08-09T20:17:58.544Z,17.70
2022-08-09T20:23:03.549Z,17.46
2022-08-09T20:28:10.247Z,17.40
2022-08-09T20:33:16.585Z,17.35
2022-08-09T20:38:42.148Z,17.38
2022-08-09T20:43:44.654Z,17.63
2022-08-09T20:48:48.176Z,17.69
2022-08-09T20:53:52.353Z,17.79
2022-08-09T20:58:59.065Z,17.91
2022-08-09T21:04:08.196Z,17.86
2022-08-09T21:09:41.576Z,17.87
2022-08-09T21:14:49.107Z,17.81
2022-08-09T21:20:18.681Z,17.73
2022-08-09T21:25:38.239Z,17.39
2022-08-09T21:30:42.252Z,17.52
2022-08-09T21:35:50.839Z,17.48
2022-08-09T21:40:55.172Z,17.26
2022-08-09T21:45:59.422Z,17.14
2022-08-09T21:51:13.328Z,17.11
2022-08-09T21:56:43.081Z,16.96
2022-08-09T22:02:00.864Z,16.90
2022-08-09T22:07:05.722Z,16.89
2022-08-09T22:12:17.863Z,16.79
2022-08-09T22:17:23.091Z,16.73
2022-08-09T22:22:26.870Z,16.62
2022-08-09T22:27:30.232Z,16.61
2022-08-09T22:32:34.560Z,16.80
2022-08-09T22:37:40.535Z,16.80
2022-08-09T22:42:45.810Z,16.80
2022-08-09T22:48:29.899Z,16.69
2022-08-09T22:53:13.662Z,16.78
2022-08-09T22:58:20.258Z,16.73
2022-08-09T23:04:05.948Z,16.70
2022-08-09T23:08:58.864Z,16.67
2022-08-09T23:14:03.777Z,16.60
2022-08-09T23:19:08.108Z,16.48
2022-08-09T23:24:11.353Z,16.51
2022-08-09T23:29:15.940Z,16.45
2022-08-09T23:34:19.309Z,16.33
2022-08-09T23:39:23.469Z,16.24
2022-08-09T23:44:26.526Z,16.34
2022-08-09T23:49:29.655Z,16.21
2022-08-09T23:54:33.215Z,16.20
2022-08-09T23:59:56.364Z,16.17
